createdAt,value
2018-11-25T00:01:28.826Z,1999.90
2018-11-25T00:03:56.861Z,1999.90
2018-11-25T00:06:24.989Z,1999.90
2018-11-25T00:08:52.969Z,1999.90
2018-11-25T00:11:23.886Z,1999.90
2018-11-25T00:13:54.419Z,1999.90
2018-11-25T00:16:24.788Z,1999.90
2018-11-25T00:18:52.884Z,1999.90
2018-11-25T00:21:20.780Z,1999.90
2018-11-25T00:23:48.682Z,1999.90
2018-11-25T00:26:16.551Z,1999.90
2018-11-25T00:28:44.439Z,1999.90
2018-11-25T00:31:12.344Z,1999.90
2018-11-25T00:33:40.255Z,1999.90
2018-11-25T00:36:08.218Z,1999.90
2018-11-25T00:38:36.084Z,1999.90
2018-11-25T00:41:04.167Z,1999.90
2018-11-25T00:43:32.079Z,1999.90
2018-11-25T00:45:59.945Z,1999.90
2018-11-25T00:48:27.840Z,1999.90
2018-11-25T00:50:55.710Z,1999.90
2018-11-25T00:53:23.571Z,1999.90
2018-11-25T00:55:51.436Z,1999.90
2018-11-25T00:58:19.316Z,1999.90
2018-11-25T01:00:47.248Z,1999.90
2018-11-25T01:03:15.125Z,1999.90
2018-11-25T01:05:42.975Z,1999.90
2018-11-25T01:08:10.952Z,1999.90
2018-11-25T01:10:38.817Z,1999.90
2018-11-25T01:13:06.702Z,1999.90
2018-11-25T01:15:34.568Z,1999.90
2018-11-25T01:18:02.456Z,1999.90
2018-11-25T01:20:30.312Z,1999.90
2018-11-25T01:22:58.165Z,1999.90
2018-11-25T01:25:26.040Z,1999.90
2018-11-25T01:27:53.905Z,1999.90
2018-11-25T01:30:21.776Z,1999.90
2018-11-25T01:32:49.637Z,1999.90
2018-11-25T01:35:17.497Z,1999.90
2018-11-25T01:37:45.348Z,1999.90
2018-11-25T01:40:14.680Z,1999.90
2018-11-25T01:42:42.584Z,1999.90
2018-11-25T01:45:11.127Z,1999.90
2018-11-25T01:47:39.005Z,1999.90
2018-11-25T01:50:07.991Z,1999.90
2018-11-25T01:52:35.897Z,1999.90
2018-11-25T01:55:03.777Z,1999.90
2018-11-25T01:57:31.632Z,1999.90
2018-11-25T01:59:59.493Z,1999.90
2018-11-25T02:02:27.346Z,1999.90
2018-11-25T02:04:55.209Z,1999.90
2018-11-25T02:07:23.061Z,1999.90
2018-11-25T02:09:50.948Z,1999.90
2018-11-25T02:12:18.795Z,1999.90
2018-11-25T02:14:46.671Z,1999.90
2018-11-25T02:17:14.515Z,1999.90
2018-11-25T02:19:42.388Z,1999.90
2018-11-25T02:22:10.293Z,1999.90
2018-11-25T02:24:38.167Z,1999.90
2018-11-25T02:27:06.056Z,1999.90
2018-11-25T02:29:34.022Z,1999.90
2018-11-25T02:32:01.867Z,1999.90
2018-11-25T02:34:29.765Z,1999.90
2018-11-25T02:36:57.616Z,1999.90
2018-11-25T02:39:25.612Z,1999.90
2018-11-25T02:41:53.465Z,1999.90
2018-11-25T02:44:21.319Z,1999.90
2018-11-25T02:46:49.164Z,1999.90
2018-11-25T02:49:17.071Z,1999.90
2018-11-25T02:51:44.920Z,1999.90
2018-11-25T02:54:12.877Z,1999.90
2018-11-25T02:56:40.783Z,1999.90
2018-11-25T02:59:08.640Z,1999.90
2018-11-25T03:01:36.496Z,1999.90
2018-11-25T03:04:04.343Z,1999.90
2018-11-25T03:06:32.199Z,1999.90
2018-11-25T03:09:00.045Z,1999.90
2018-11-25T03:11:27.943Z,1999.90
2018-11-25T03:13:55.810Z,1999.90
2018-11-25T03:16:23.667Z,1999.90
2018-11-25T03:18:51.541Z,1999.90
2018-11-25T03:21:19.408Z,1999.90
2018-11-25T03:23:47.381Z,1999.90
2018-11-25T03:26:15.249Z,1999.90
2018-11-25T03:28:43.100Z,1999.90
2018-11-25T03:31:10.988Z,1999.90
2018-11-25T03:33:38.837Z,1999.90
2018-11-25T03:36:06.702Z,1999.90
2018-11-25T03:38:34.557Z,1999.90
2018-11-25T03:41:02.420Z,1999.90
2018-11-25T03:43:30.276Z,1999.90
2018-11-25T03:45:58.135Z,1999.90
2018-11-25T03:48:25.981Z,1999.90
2018-11-25T03:50:53.841Z,1999.90
2018-11-25T03:53:21.684Z,1999.90
2018-11-25T03:55:49.560Z,1999.90
2018-11-25T03:58:17.405Z,1999.90
2018-11-25T04:00:45.259Z,1999.90
2018-11-25T04:03:13.120Z,1999.90
2018-11-25T04:05:40.963Z,1999.90
2018-11-25T04:08:08.816Z,1999.90
2018-11-25T04:10:36.667Z,1999.90
2018-11-25T04:13:04.557Z,1999.90
2018-11-25T04:15:32.411Z,1999.90
2018-11-25T04:18:00.260Z,1999.90
2018-11-25T04:20:28.108Z,1999.90
2018-11-25T04:22:55.962Z,1999.90
2018-11-25T04:25:23.807Z,1999.90
2018-11-25T04:27:51.663Z,1999.90
2018-11-25T04:30:19.641Z,1999.90
2018-11-25T04:32:47.885Z,1999.90
2018-11-25T04:35:15.727Z,1999.90
2018-11-25T04:37:43.579Z,1999.90
2018-11-25T04:40:11.880Z,1999.90
2018-11-25T04:42:39.732Z,1999.90
2018-11-25T04:45:08.442Z,1999.90
2018-11-25T04:47:36.300Z,1999.90
2018-11-25T04:50:05.400Z,1999.90
2018-11-25T04:52:33.251Z,1999.90
2018-11-25T04:55:01.095Z,1999.90
2018-11-25T04:57:28.945Z,1999.90
2018-11-25T04:59:56.837Z,1999.90
2018-11-25T05:02:24.679Z,1999.90
2018-11-25T05:04:52.523Z,1999.90
2018-11-25T05:07:20.367Z,1999.90
2018-11-25T05:09:48.207Z,1999.90
2018-11-25T05:12:16.063Z,1999.90
2018-11-25T05:14:43.917Z,1999.90
2018-11-25T05:17:11.768Z,1999.90
2018-11-25T05:19:39.610Z,1999.90
2018-11-25T05:22:07.468Z,1999.90
2018-11-25T05:24:35.318Z,1999.90
2018-11-25T05:27:03.164Z,1999.90
2018-11-25T05:29:31.007Z,1999.90
2018-11-25T05:31:58.852Z,1999.90
2018-11-25T05:34:26.702Z,1999.90
2018-11-25T05:36:54.540Z,1999.90
2018-11-25T05:39:22.398Z,1999.90
2018-11-25T05:41:50.231Z,1999.90
2018-11-25T05:44:18.088Z,1999.90
2018-11-25T05:46:45.953Z,1999.90
2018-11-25T05:49:13.887Z,1999.90
2018-11-25T05:51:41.907Z,1999.90
2018-11-25T05:54:09.813Z,1999.90
2018-11-25T05:56:37.767Z,1999.90
2018-11-25T05:59:05.739Z,1999.90
2018-11-25T06:01:33.644Z,1999.90
2018-11-25T06:04:01.572Z,1999.90
2018-11-25T06:06:29.505Z,1999.90
2018-11-25T06:08:57.439Z,1999.90
2018-11-25T06:11:25.414Z,1999.90
2018-11-25T06:13:53.411Z,1999.90
2018-11-25T06:16:21.272Z,1999.90
2018-11-25T06:18:49.308Z,1999.90
2018-11-25T06:21:17.183Z,1999.90
2018-11-25T06:23:45.163Z,1999.90
2018-11-25T06:26:13.108Z,1999.90
2018-11-25T06:28:41.125Z,1999.90
2018-11-25T06:31:09.048Z,1999.90
2018-11-25T06:33:37.000Z,1999.90
2018-11-25T06:36:04.969Z,1999.90
2018-11-25T06:38:39.599Z,1999.90
2018-11-25T06:41:07.540Z,1999.90
2018-11-25T06:43:35.624Z,1999.90
2018-11-25T06:46:04.452Z,1999.90
2018-11-25T06:48:32.292Z,1999.90
2018-11-25T06:51:00.148Z,1999.90
2018-11-25T06:53:28.007Z,1999.90
2018-11-25T06:55:55.856Z,1999.90
2018-11-25T06:58:23.700Z,1999.90
2018-11-25T07:00:51.545Z,1999.90
2018-11-25T07:03:19.391Z,1999.90
2018-11-25T07:05:47.231Z,1999.90
2018-11-25T07:08:15.079Z,1999.90
2018-11-25T07:10:42.923Z,1999.90
2018-11-25T07:13:10.772Z,1999.90
2018-11-25T07:15:38.639Z,1999.90
2018-11-25T07:18:06.480Z,1999.90
2018-11-25T07:20:34.344Z,1999.90
2018-11-25T07:23:02.188Z,1999.90
2018-11-25T07:25:30.307Z,1999.90
2018-11-25T07:27:58.179Z,1999.90
2018-11-25T07:30:26.601Z,1999.90
2018-11-25T07:32:54.555Z,1999.90
2018-11-25T07:35:22.904Z,1999.90
2018-11-25T07:37:50.871Z,1999.90
2018-11-25T07:40:19.152Z,1999.90
2018-11-25T07:42:47.028Z,1999.90
2018-11-25T07:45:30.083Z,1999.90
2018-11-25T07:47:52.047Z,1999.90
2018-11-25T07:50:20.019Z,1999.90
2018-11-25T07:52:48.095Z,1999.90
2018-11-25T07:55:16.487Z,1999.90
2018-11-25T07:57:44.629Z,1999.90
2018-11-25T08:00:16.018Z,1999.90
2018-11-25T08:02:43.922Z,1999.90
2018-11-25T08:05:12.247Z,1999.90
2018-11-25T08:07:40.100Z,1999.90
2018-11-25T08:10:09.546Z,1999.90
2018-11-25T08:12:37.397Z,1999.90
2018-11-25T08:15:06.408Z,1999.90
2018-11-25T08:17:34.324Z,1999.90
2018-11-25T08:20:02.176Z,1999.90
2018-11-25T08:22:30.114Z,1999.90
2018-11-25T08:24:57.961Z,1999.90
2018-11-25T08:27:25.812Z,1999.90
2018-11-25T08:29:54.045Z,1999.90
2018-11-25T08:32:22.085Z,1999.90
2018-11-25T08:34:49.936Z,1999.90
2018-11-25T08:37:17.800Z,1999.90
2018-11-25T08:39:45.662Z,1999.90
2018-11-25T08:42:13.560Z,1999.90
2018-11-25T08:44:41.417Z,1999.90
2018-11-25T08:47:09.335Z,1999.90
2018-11-25T08:49:37.211Z,1999.90
2018-11-25T08:52:05.187Z,1999.90
2018-11-25T08:54:33.039Z,1999.90
2018-11-25T08:57:00.907Z,1999.90
2018-11-25T08:59:28.752Z,1999.90
2018-11-25T09:01:56.623Z,1999.90
2018-11-25T09:04:24.471Z,1999.90
2018-11-25T09:06:52.315Z,1999.90
2018-11-25T09:09:20.167Z,1999.90
2018-11-25T09:11:48.028Z,1999.90
2018-11-25T09:14:15.885Z,1999.90
2018-11-25T09:16:43.836Z,1999.90
2018-11-25T09:19:11.699Z,1999.90
2018-11-25T09:21:39.548Z,1999.90
2018-11-25T09:24:07.416Z,1999.90
2018-11-25T09:26:35.271Z,1999.90
2018-11-25T09:29:03.120Z,1999.90
2018-11-25T09:31:30.964Z,1999.90
2018-11-25T09:33:58.816Z,1999.90
2018-11-25T09:36:26.667Z,1999.90
2018-11-25T09:38:54.516Z,1999.90
2018-11-25T09:41:22.360Z,1999.90
2018-11-25T09:43:50.216Z,1999.90
2018-11-25T09:46:18.063Z,1999.90
2018-11-25T09:48:45.915Z,1999.90
2018-11-25T09:51:13.775Z,1999.90
2018-11-25T09:53:41.728Z,1999.90
2018-11-25T09:56:09.595Z,1999.90
2018-11-25T09:58:37.447Z,1999.90
2018-11-25T10:01:05.759Z,1999.90
2018-11-25T10:03:33.613Z,1999.90
2018-11-25T10:06:01.476Z,1999.90
2018-11-25T10:08:29.477Z,1999.90
2018-11-25T10:10:57.330Z,1999.90
2018-11-25T10:13:25.223Z,1999.90
2018-11-25T10:15:53.132Z,1999.90
2018-11-25T10:18:20.979Z,1999.90
2018-11-25T10:20:48.839Z,1999.90
2018-11-25T10:23:16.688Z,1999.90
2018-11-25T10:25:44.540Z,1999.90
2018-11-25T10:28:12.392Z,1999.90
2018-11-25T10:30:40.239Z,1999.90
2018-11-25T10:33:08.736Z,1999.90
2018-11-25T10:35:36.597Z,1999.90
2018-11-25T10:38:04.888Z,1999.90
2018-11-25T10:40:32.760Z,1999.90
2018-11-25T10:43:00.741Z,1999.90
2018-11-25T10:45:28.856Z,1999.90
2018-11-25T10:47:57.010Z,1999.90
2018-11-25T10:50:25.012Z,1999.90
2018-11-25T10:52:52.876Z,1999.90
2018-11-25T10:55:21.118Z,1999.90
2018-11-25T10:57:49.379Z,1999.90
2018-11-25T11:00:26.233Z,1999.90
2018-11-25T11:02:59.840Z,1999.90
2018-11-25T11:05:33.275Z,1999.90
2018-11-25T11:08:01.131Z,1999.90
2018-11-25T11:10:29.056Z,1999.90
2018-11-25T11:12:56.944Z,1999.90
2018-11-25T11:15:24.946Z,1999.90
2018-11-25T11:17:52.813Z,1999.90
2018-11-25T11:20:20.972Z,1999.90
2018-11-25T11:22:48.821Z,1999.90
2018-11-25T11:25:16.767Z,1999.90
2018-11-25T11:27:44.631Z,1999.90
2018-11-25T11:30:12.495Z,1999.90
2018-11-25T11:32:42.143Z,1999.90
2018-11-25T11:35:09.989Z,1999.90
2018-11-25T11:37:37.902Z,1999.90
2018-11-25T11:40:07.135Z,1999.90
2018-11-25T11:42:34.988Z,1999.90
2018-11-25T11:45:03.089Z,1999.90
2018-11-25T11:47:30.984Z,1999.90
2018-11-25T11:49:58.953Z,1999.90
2018-11-25T11:52:26.848Z,1999.90
2018-11-25T11:54:54.828Z,1999.90
2018-11-25T11:57:22.696Z,1999.90
2018-11-25T11:59:50.555Z,1999.90
2018-11-25T12:02:18.400Z,1999.90
2018-11-25T12:04:46.295Z,1999.90
2018-11-25T12:07:14.273Z,1999.90
2018-11-25T12:09:42.121Z,1999.90
2018-11-25T12:12:09.980Z,1999.90
2018-11-25T12:14:37.887Z,1999.90
2018-11-25T12:17:05.755Z,1999.90
2018-11-25T12:19:33.715Z,1999.90
2018-11-25T12:22:01.649Z,1999.90
2018-11-25T12:24:29.564Z,1999.90
2018-11-25T12:26:57.432Z,1999.90
2018-11-25T12:29:25.368Z,1999.90
2018-11-25T12:31:53.244Z,1999.90
2018-11-25T12:34:21.088Z,1999.90
2018-11-25T12:36:48.978Z,1999.90
2018-11-25T12:39:16.828Z,1999.90
2018-11-25T12:41:44.760Z,1999.90
2018-11-25T12:44:12.604Z,1999.90
2018-11-25T12:46:40.508Z,1999.90
2018-11-25T12:49:08.419Z,1999.90
2018-11-25T12:51:36.266Z,1999.90
2018-11-25T12:54:04.156Z,1999.90
2018-11-25T12:56:32.024Z,1999.90
2018-11-25T12:58:59.898Z,1999.90
2018-11-25T13:01:27.859Z,1999.90
2018-11-25T13:03:55.719Z,1999.90
2018-11-25T13:06:23.591Z,1999.90
2018-11-25T13:08:51.439Z,1999.90
2018-11-25T13:11:19.288Z,1999.90
2018-11-25T13:13:47.210Z,1999.90
2018-11-25T13:16:15.115Z,1999.90
2018-11-25T13:18:42.960Z,1999.90
2018-11-25T13:21:10.883Z,1999.90
2018-11-25T13:23:43.084Z,1999.90
2018-11-25T13:26:06.637Z,1999.90
2018-11-25T13:28:34.571Z,1999.90
2018-11-25T13:31:02.448Z,1999.90
2018-11-25T13:33:30.312Z,1999.90
2018-11-25T13:35:58.156Z,1999.90
2018-11-25T13:38:26.004Z,1999.90
2018-11-25T13:40:53.940Z,1999.90
2018-11-25T13:43:21.809Z,1999.90
2018-11-25T13:45:49.741Z,1999.90
2018-11-25T13:48:17.588Z,1999.90
2018-11-25T13:50:45.455Z,1999.90
2018-11-25T13:53:13.331Z,1999.90
2018-11-25T13:55:41.191Z,1999.90
2018-11-25T13:58:09.058Z,1999.90
2018-11-25T14:00:39.133Z,1999.90
2018-11-25T14:03:07.911Z,1999.90
2018-11-25T14:05:35.808Z,1999.90
2018-11-25T14:08:03.662Z,1999.90
2018-11-25T14:10:32.237Z,1999.90
2018-11-25T14:13:00.082Z,1999.90
2018-11-25T14:15:27.939Z,1999.90
2018-11-25T14:17:55.811Z,1999.90
2018-11-25T14:20:23.695Z,1999.90
2018-11-25T14:22:51.566Z,1999.90
2018-11-25T14:25:19.900Z,1999.90
2018-11-25T14:27:48.636Z,1999.90
2018-11-25T14:30:17.265Z,1999.90
2018-11-25T14:32:49.788Z,1999.90
2018-11-25T14:35:18.178Z,1999.90
2018-11-25T14:37:46.046Z,1999.90
2018-11-25T14:40:14.728Z,1999.90
2018-11-25T14:42:42.668Z,1999.90
2018-11-25T14:45:11.149Z,1999.90
2018-11-25T14:47:39.108Z,1999.90
2018-11-25T14:50:09.796Z,1999.90
2018-11-25T14:52:37.739Z,1999.90
2018-11-25T14:55:06.962Z,1999.90
2018-11-25T14:57:34.820Z,1999.90
2018-11-25T15:00:03.556Z,1999.90
2018-11-25T15:02:31.428Z,1999.90
2018-11-25T15:04:59.287Z,1999.90
2018-11-25T15:07:27.163Z,1999.90
2018-11-25T15:09:55.020Z,1999.90
2018-11-25T15:12:22.874Z,1999.90
2018-11-25T15:14:50.748Z,1999.90
2018-11-25T15:17:18.604Z,1999.90
2018-11-25T15:19:46.452Z,1999.90
2018-11-25T15:22:14.384Z,1999.90
2018-11-25T15:24:42.310Z,1999.90
2018-11-25T15:27:10.162Z,1999.90
2018-11-25T15:29:38.072Z,1999.90
2018-11-25T15:32:06.056Z,1999.90
2018-11-25T15:34:33.923Z,1999.90
2018-11-25T15:37:01.769Z,1999.90
2018-11-25T15:39:29.733Z,1999.90
2018-11-25T15:41:57.588Z,1999.90
2018-11-25T15:44:25.442Z,1999.90
2018-11-25T15:46:53.300Z,1999.90
2018-11-25T15:49:21.163Z,1999.90
2018-11-25T15:51:49.015Z,1999.90
2018-11-25T15:54:16.868Z,1999.90
2018-11-25T15:56:44.724Z,1999.90
2018-11-25T15:59:12.572Z,1999.90
2018-11-25T16:01:40.544Z,1999.90
2018-11-25T16:04:08.384Z,1999.90
2018-11-25T16:06:36.464Z,1999.90
2018-11-25T16:09:05.993Z,1999.90
2018-11-25T16:11:33.960Z,1999.90
2018-11-25T16:14:02.186Z,1999.90
2018-11-25T16:16:30.166Z,1999.90
2018-11-25T16:18:58.415Z,1999.90
2018-11-25T16:21:26.116Z,1999.90
2018-11-25T16:23:54.044Z,1999.90
2018-11-25T16:26:23.368Z,1999.90
2018-11-25T16:28:52.446Z,1999.90
2018-11-25T16:31:20.433Z,1999.90
2018-11-25T16:33:48.373Z,1999.90
2018-11-25T16:36:16.232Z,1999.90
2018-11-25T16:38:44.104Z,1999.90
2018-11-25T16:41:11.944Z,1999.90
2018-11-25T16:43:39.807Z,1999.90
2018-11-25T16:46:07.756Z,1999.90
2018-11-25T16:48:35.629Z,1999.90
2018-11-25T16:51:03.600Z,1999.90
2018-11-25T16:53:31.520Z,1999.90
2018-11-25T16:55:59.380Z,1999.90
2018-11-25T16:58:27.323Z,1999.90
2018-11-25T17:00:55.327Z,1999.90
2018-11-25T17:03:23.200Z,1999.90
2018-11-25T17:05:51.608Z,1999.90
2018-11-25T17:08:22.509Z,1999.90
2018-11-25T17:10:50.567Z,1999.90
2018-11-25T17:13:18.544Z,1999.90
2018-11-25T17:15:46.469Z,1999.90
2018-11-25T17:18:14.327Z,1999.90
2018-11-25T17:20:42.315Z,1999.90
2018-11-25T17:23:10.183Z,1999.90
2018-11-25T17:25:38.144Z,1999.90
2018-11-25T17:28:06.408Z,1999.90
2018-11-25T17:30:34.369Z,1999.90
2018-11-25T17:33:02.260Z,1999.90
2018-11-25T17:35:30.668Z,1999.90
2018-11-25T17:37:58.809Z,1999.90
2018-11-25T17:40:26.831Z,1999.90
2018-11-25T17:42:54.797Z,1999.90
2018-11-25T17:45:22.706Z,1999.90
2018-11-25T17:47:50.579Z,1999.90
2018-11-25T17:50:22.983Z,1999.90
2018-11-25T17:52:50.944Z,1999.90
2018-11-25T17:55:19.444Z,1999.90
2018-11-25T17:57:47.321Z,1999.90
2018-11-25T18:00:32.311Z,1999.90
2018-11-25T18:03:00.194Z,1999.90
2018-11-25T18:05:28.045Z,1999.90
2018-11-25T18:07:55.915Z,1999.90
2018-11-25T18:10:23.800Z,1999.90
2018-11-25T18:12:51.664Z,1999.90
2018-11-25T18:15:19.977Z,1999.90
2018-11-25T18:17:50.912Z,1999.90
2018-11-25T18:20:18.844Z,1999.90
2018-11-25T18:22:47.496Z,1999.90
2018-11-25T18:25:15.441Z,1999.90
2018-11-25T18:27:44.009Z,1999.90
2018-11-25T18:30:12.695Z,1999.90
2018-11-25T18:32:41.461Z,1999.90
2018-11-25T18:35:09.469Z,1999.90
2018-11-25T18:37:37.412Z,1999.90
2018-11-25T18:40:06.924Z,1999.90
2018-11-25T18:42:34.824Z,1999.90
2018-11-25T18:45:02.700Z,1999.90
2018-11-25T18:47:30.560Z,1999.90
2018-11-25T18:49:58.424Z,1999.90
2018-11-25T18:52:26.351Z,1999.90
2018-11-25T18:54:53.822Z,1999.90
2018-11-25T18:57:21.748Z,1999.90
2018-11-25T18:59:49.651Z,1999.90
2018-11-25T19:02:19.916Z,1926.47
2018-11-25T19:04:47.827Z,1979.13
2018-11-25T19:07:15.721Z,1870.43
2018-11-25T19:09:43.584Z,1961.83
2018-11-25T19:12:11.493Z,1974.33
2018-11-25T19:14:39.408Z,1984.07
2018-11-25T19:17:07.293Z,1808.27
2018-11-25T19:19:35.432Z,1774.53
2018-11-25T19:22:03.292Z,1626.60
2018-11-25T19:24:31.153Z,1729.90
2018-11-25T19:26:59.021Z,1614.30
2018-11-25T19:29:26.903Z,1210.53
2018-11-25T19:31:54.811Z,1346.17
2018-11-25T19:34:22.708Z,1079.10
2018-11-25T19:36:50.765Z,1637.27
2018-11-25T19:39:18.671Z,1312.73
2018-11-25T19:41:46.628Z,1075.90
2018-11-25T19:44:14.544Z,889.60
2018-11-25T19:46:42.576Z,791.47
2018-11-25T19:49:10.474Z,845.00
2018-11-25T19:51:38.412Z,925.33
2018-11-25T19:54:06.291Z,1292.57
2018-11-25T19:56:34.144Z,1307.23
2018-11-25T19:59:02.144Z,711.67
2018-11-25T20:01:29.986Z,1375.93
2018-11-25T20:03:57.903Z,835.30
2018-11-25T20:06:25.788Z,991.20
2018-11-25T20:08:53.653Z,1160.27
2018-11-25T20:11:21.544Z,878.23
2018-11-25T20:13:49.420Z,700.10
2018-11-25T20:16:23.024Z,530.43
2018-11-25T20:18:50.964Z,567.77
2018-11-25T20:21:24.429Z,666.40
2018-11-25T20:23:52.319Z,471.60
2018-11-25T20:26:20.171Z,478.90
2018-11-25T20:28:48.048Z,864.20
2018-11-25T20:31:15.944Z,961.43
2018-11-25T20:33:52.359Z,455.33
2018-11-25T20:36:15.610Z,525.57
2018-11-25T20:38:49.188Z,652.63
2018-11-25T20:41:17.044Z,391.57
2018-11-25T20:43:44.904Z,659.37
2018-11-25T20:46:18.528Z,667.67
2018-11-25T20:48:47.512Z,568.93
2018-11-25T20:51:15.400Z,493.37
2018-11-25T20:53:48.980Z,608.13
2018-11-25T20:56:16.964Z,526.77
2018-11-25T20:58:44.896Z,608.53
2018-11-25T21:01:12.756Z,543.63
2018-11-25T21:03:40.644Z,834.40
2018-11-25T21:06:08.501Z,770.00
2018-11-25T21:08:36.347Z,481.13
2018-11-25T21:11:04.409Z,702.47
2018-11-25T21:13:32.557Z,593.57
2018-11-25T21:16:00.424Z,395.03
2018-11-25T21:18:28.344Z,530.63
2018-11-25T21:20:56.254Z,404.60
2018-11-25T21:23:24.097Z,447.60
2018-11-25T21:25:54.028Z,484.03
2018-11-25T21:28:21.980Z,745.30
2018-11-25T21:30:49.885Z,602.57
2018-11-25T21:33:17.723Z,668.43
2018-11-25T21:35:45.584Z,490.83
2018-11-25T21:38:13.523Z,343.80
2018-11-25T21:40:41.407Z,837.03
2018-11-25T21:43:09.252Z,399.30
2018-11-25T21:45:37.156Z,575.53
2018-11-25T21:48:05.508Z,277.23
2018-11-25T21:50:33.355Z,690.50
2018-11-25T21:53:01.237Z,348.17
2018-11-25T21:55:29.205Z,624.53
2018-11-25T21:57:57.171Z,326.03
2018-11-25T22:00:25.619Z,363.80
2018-11-25T22:02:53.496Z,329.93
2018-11-25T22:05:24.796Z,551.37
2018-11-25T22:07:49.240Z,762.47
2018-11-25T22:10:19.028Z,331.83
2018-11-25T22:12:47.216Z,297.77
2018-11-25T22:15:16.364Z,319.47
2018-11-25T22:17:44.245Z,259.10
2018-11-25T22:20:12.515Z,306.63
2018-11-25T22:22:40.416Z,292.37
2018-11-25T22:25:08.953Z,259.33
2018-11-25T22:27:36.830Z,257.23
2018-11-25T22:30:13.011Z,260.80
2018-11-25T22:32:41.088Z,234.73
2018-11-25T22:35:09.838Z,273.30
2018-11-25T22:37:37.896Z,247.17
2018-11-25T22:40:07.297Z,234.67
2018-11-25T22:42:35.394Z,241.13
2018-11-25T22:45:03.862Z,230.70
2018-11-25T22:47:31.847Z,230.20
2018-11-25T22:49:59.697Z,230.00
2018-11-25T22:52:27.734Z,238.57
2018-11-25T22:54:55.592Z,228.00
2018-11-25T22:57:23.577Z,220.67
2018-11-25T22:59:51.455Z,209.20
2018-11-25T23:02:19.414Z,199.70
2018-11-25T23:04:52.944Z,217.33
2018-11-25T23:07:20.787Z,220.93
2018-11-25T23:09:48.632Z,197.43
2018-11-25T23:12:16.475Z,210.23
2018-11-25T23:14:44.431Z,215.33
2018-11-25T23:17:13.168Z,220.30
2018-11-25T23:19:41.210Z,215.20
2018-11-25T23:22:09.071Z,203.03
2018-11-25T23:24:37.070Z,217.30
2018-11-25T23:27:05.012Z,207.97
2018-11-25T23:29:32.975Z,224.10
2018-11-25T23:32:00.844Z,216.50
2018-11-25T23:34:28.893Z,220.43
2018-11-25T23:36:56.756Z,211.50
2018-11-25T23:39:24.685Z,227.80
2018-11-25T23:41:52.578Z,206.70
2018-11-25T23:44:20.536Z,204.20
2018-11-25T23:46:48.485Z,218.67
2018-11-25T23:49:16.360Z,224.43
2018-11-25T23:51:44.338Z,212.30
2018-11-25T23:54:12.200Z,221.03
2018-11-25T23:56:40.168Z,225.33
2018-11-25T23:59:08.004Z,230.87
